createdAt,value
2023-05-17T00:00:15.130Z,11.81
2023-05-17T00:03:18.706Z,11.67
2023-05-17T00:06:22.850Z,11.51
2023-05-17T00:09:26.901Z,11.41
2023-05-17T00:12:31.041Z,11.47
2023-05-17T00:15:35.002Z,11.59
2023-05-17T00:18:39.249Z,11.70
2023-05-17T00:21:43.142Z,11.42
2023-05-17T00:24:47.123Z,11.67
2023-05-17T00:27:50.905Z,11.55
2023-05-17T00:30:54.940Z,11.49
2023-05-17T00:33:58.996Z,11.57
2023-05-17T00:37:03.169Z,11.46
2023-05-17T00:40:07.367Z,11.20
2023-05-17T00:43:11.155Z,11.47
2023-05-17T00:46:14.949Z,11.35
2023-05-17T00:49:19.018Z,11.41
2023-05-17T00:52:23.117Z,11.53
2023-05-17T00:55:27.422Z,11.40
2023-05-17T00:58:31.423Z,11.57
2023-05-17T01:01:36.349Z,11.22
2023-05-17T01:04:40.897Z,11.13
2023-05-17T01:07:45.039Z,11.02
2023-05-17T01:10:48.815Z,11.12
2023-05-17T01:13:52.785Z,11.07
2023-05-17T01:16:57.013Z,11.24
2023-05-17T01:20:01.340Z,11.29
2023-05-17T01:23:05.841Z,11.46
2023-05-17T01:26:09.822Z,11.33
2023-05-17T01:29:13.861Z,11.42
2023-05-17T01:32:18.009Z,11.63
2023-05-17T01:35:22.218Z,11.82
2023-05-17T01:38:26.378Z,11.56
2023-05-17T01:41:30.021Z,11.69
2023-05-17T01:44:34.126Z,11.71
2023-05-17T01:47:37.968Z,11.93
2023-05-17T01:50:42.106Z,11.70
2023-05-17T01:53:46.125Z,11.97
2023-05-17T01:56:50.041Z,11.36
2023-05-17T01:59:57.123Z,11.32
2023-05-17T02:03:01.315Z,11.33
2023-05-17T02:06:05.492Z,11.51
2023-05-17T02:09:09.599Z,11.76
2023-05-17T02:12:13.676Z,11.80
2023-05-17T02:15:17.603Z,11.48
2023-05-17T02:18:21.904Z,11.32
2023-05-17T02:21:25.799Z,11.46
2023-05-17T02:24:29.643Z,11.25
2023-05-17T02:27:33.530Z,11.32
2023-05-17T02:30:37.568Z,10.99
2023-05-17T02:33:41.891Z,11.47
2023-05-17T02:36:45.572Z,11.70
2023-05-17T02:39:49.608Z,11.59
2023-05-17T02:42:53.653Z,11.13
2023-05-17T02:45:57.770Z,11.44
2023-05-17T02:49:01.782Z,11.52
2023-05-17T02:52:05.601Z,11.35
2023-05-17T02:55:11.489Z,11.60
2023-05-17T02:58:15.656Z,11.24
2023-05-17T03:01:19.683Z,11.17
2023-05-17T03:04:23.766Z,11.20
2023-05-17T03:07:29.548Z,11.02
2023-05-17T03:10:33.551Z,11.46
2023-05-17T03:13:37.501Z,11.30
2023-05-17T03:16:43.505Z,11.50
2023-05-17T03:19:47.784Z,11.17
2023-05-17T03:22:51.756Z,11.48
2023-05-17T03:25:55.908Z,11.39
2023-05-17T03:28:59.990Z,11.27
2023-05-17T03:32:04.090Z,11.00
2023-05-17T03:35:08.235Z,11.19
2023-05-17T03:38:12.168Z,11.44
2023-05-17T03:41:16.162Z,11.29
2023-05-17T03:44:22.543Z,10.94
2023-05-17T03:47:26.776Z,11.02
2023-05-17T03:50:30.867Z,10.87
2023-05-17T03:53:34.963Z,11.07
2023-05-17T03:56:38.920Z,11.43
2023-05-17T03:59:42.868Z,11.00
2023-05-17T04:02:46.960Z,11.15
2023-05-17T04:05:50.968Z,11.22
2023-05-17T04:08:54.844Z,10.92
2023-05-17T04:11:58.627Z,10.99
2023-05-17T04:15:02.895Z,10.76
2023-05-17T04:18:08.859Z,10.90
2023-05-17T04:21:12.899Z,10.69
2023-05-17T04:24:16.716Z,11.00
2023-05-17T04:27:20.556Z,10.74
2023-05-17T04:30:24.603Z,10.84
2023-05-17T04:33:28.649Z,10.84
2023-05-17T04:36:32.704Z,10.65
2023-05-17T04:39:36.494Z,10.94
2023-05-17T04:42:40.378Z,10.81
2023-05-17T04:45:44.714Z,11.16
2023-05-17T04:48:48.729Z,11.09
2023-05-17T04:51:52.457Z,10.90
2023-05-17T04:54:56.543Z,11.09
2023-05-17T04:58:00.597Z,11.01
2023-05-17T05:01:04.713Z,11.18
2023-05-17T05:04:08.921Z,11.29
2023-05-17T05:07:12.729Z,11.40
2023-05-17T05:10:16.656Z,11.47
2023-05-17T05:13:20.982Z,11.89
2023-05-17T05:16:25.217Z,11.97
2023-05-17T05:19:29.595Z,11.95
2023-05-17T05:22:33.546Z,11.68
2023-05-17T05:25:37.595Z,11.58
2023-05-17T05:28:41.630Z,11.75
2023-05-17T05:31:45.649Z,11.32
2023-05-17T05:34:50.870Z,11.94
2023-05-17T05:37:54.523Z,11.75
2023-05-17T05:41:01.519Z,11.68
2023-05-17T05:44:05.619Z,11.93
2023-05-17T05:47:09.514Z,12.28
2023-05-17T05:53:49.739Z,12.73
2023-05-17T05:56:56.231Z,13.01
2023-05-17T06:03:25.863Z,12.32
2023-05-17T06:06:43.215Z,12.86
2023-05-17T06:13:05.031Z,12.44
2023-05-17T06:16:15.062Z,12.81
2023-05-17T06:19:41.820Z,12.68
2023-05-17T06:22:53.440Z,12.75
2023-05-17T06:25:57.598Z,12.93
2023-05-17T06:29:04.850Z,13.05
2023-05-17T06:32:25.360Z,13.42
2023-05-17T06:35:33.012Z,13.60
2023-05-17T06:38:46.255Z,13.34
2023-05-17T06:41:52.949Z,13.15
2023-05-17T06:44:58.476Z,13.18
2023-05-17T06:48:02.904Z,13.16
2023-05-17T06:51:07.127Z,13.63
2023-05-17T06:54:12.944Z,14.11
2023-05-17T06:57:17.055Z,13.51
2023-05-17T07:00:30.634Z,13.78
2023-05-17T07:07:20.623Z,13.62
2023-05-17T07:10:22.318Z,13.63
2023-05-17T07:10:48.559Z,14.02
2023-05-17T07:13:57.281Z,13.85
2023-05-17T07:20:22.629Z,13.40
2023-05-17T07:23:26.582Z,13.54
2023-05-17T07:30:00.904Z,13.53
2023-05-17T07:33:14.786Z,13.66
2023-05-17T07:39:42.345Z,13.54
2023-05-17T07:42:46.846Z,14.05
2023-05-17T07:45:53.541Z,14.21
2023-05-17T07:49:06.538Z,14.02
2023-05-17T08:06:12.758Z,14.36
2023-05-17T08:09:21.976Z,14.64
2023-05-17T08:17:58.463Z,14.17
2023-05-17T08:21:08.730Z,14.55
2023-05-17T08:24:13.556Z,14.42
2023-05-17T08:27:52.880Z,14.77
2023-05-17T08:30:49.546Z,14.94
2023-05-17T08:34:05.734Z,14.85
2023-05-17T08:37:12.324Z,14.47
2023-05-17T08:40:18.518Z,14.71
2023-05-17T08:43:27.902Z,15.03
2023-05-17T08:46:32.190Z,15.31
2023-05-17T08:49:45.817Z,15.03
2023-05-17T08:52:54.411Z,14.93
2023-05-17T08:56:06.016Z,15.19
2023-05-17T08:59:11.826Z,15.18
2023-05-17T09:02:16.375Z,14.76
2023-05-17T09:05:22.134Z,14.91
2023-05-17T09:08:26.647Z,15.56
2023-05-17T09:14:48.430Z,15.85
2023-05-17T09:17:52.520Z,15.53
2023-05-17T09:37:01.515Z,16.48
2023-05-17T09:40:05.916Z,16.59
2023-05-17T09:43:13.077Z,16.76
2023-05-17T09:46:18.801Z,16.67
2023-05-17T09:49:23.308Z,16.44
2023-05-17T09:52:35.208Z,16.47
2023-05-17T09:55:39.442Z,16.46
2023-05-17T09:58:43.693Z,16.81
2023-05-17T10:01:47.885Z,16.86
2023-05-17T10:04:53.192Z,16.51
2023-05-17T10:07:57.573Z,16.56
2023-05-17T10:11:06.183Z,16.82
2023-05-17T10:14:14.288Z,16.79
2023-05-17T10:17:18.488Z,16.71
2023-05-17T10:20:22.829Z,16.52
2023-05-17T10:23:27.097Z,16.60
2023-05-17T10:26:32.293Z,16.02
2023-05-17T10:29:36.561Z,15.65
2023-05-17T10:32:41.537Z,15.91
2023-05-17T10:35:45.547Z,16.01
2023-05-17T10:38:53.895Z,15.61
2023-05-17T10:42:12.969Z,15.38
2023-05-17T10:45:18.089Z,15.97
2023-05-17T10:48:22.070Z,16.10
2023-05-17T10:51:26.183Z,16.24
2023-05-17T10:54:30.371Z,16.41
2023-05-17T10:57:49.217Z,16.99
2023-05-17T11:00:55.946Z,17.22
2023-05-17T11:04:00.416Z,16.72
2023-05-17T11:07:05.567Z,16.67
2023-05-17T11:10:11.871Z,16.73
2023-05-17T11:13:16.882Z,16.78
2023-05-17T11:16:21.263Z,16.73
2023-05-17T11:19:25.568Z,16.73
2023-05-17T11:22:29.864Z,16.47
2023-05-17T11:25:33.680Z,16.62
2023-05-17T11:28:39.780Z,16.38
2023-05-17T11:31:43.944Z,16.68
2023-05-17T11:34:50.625Z,16.41
2023-05-17T11:37:57.900Z,16.34
2023-05-17T11:41:02.049Z,16.69
2023-05-17T11:44:06.492Z,16.97
2023-05-17T11:47:10.119Z,17.09
2023-05-17T11:50:14.312Z,17.44
2023-05-17T11:53:18.604Z,17.69
2023-05-17T11:56:35.750Z,16.97
2023-05-17T11:59:49.686Z,16.65
2023-05-17T12:02:53.498Z,16.74
2023-05-17T12:05:57.565Z,17.00
2023-05-17T12:09:01.593Z,17.10
2023-05-17T12:12:05.451Z,17.17
2023-05-17T12:15:09.753Z,16.40
2023-05-17T12:18:13.922Z,16.75
2023-05-17T12:21:18.334Z,17.05
2023-05-17T12:24:22.874Z,16.60
2023-05-17T12:27:30.151Z,16.63
2023-05-17T12:30:37.656Z,16.37
2023-05-17T12:33:42.351Z,16.48
2023-05-17T12:36:45.649Z,16.51
2023-05-17T12:39:50.885Z,16.64
2023-05-17T12:42:55.392Z,16.16
2023-05-17T12:46:13.359Z,16.40
2023-05-17T12:49:20.688Z,16.51
2023-05-17T13:38:33.305Z,16.73
2023-05-17T13:41:37.296Z,17.08
2023-05-17T13:44:43.429Z,16.90
2023-05-17T13:47:47.299Z,16.88
2023-05-17T13:50:51.136Z,16.97
2023-05-17T13:53:55.204Z,16.87
2023-05-17T13:56:59.425Z,17.21
2023-05-17T14:00:03.118Z,16.98
2023-05-17T14:03:06.924Z,16.82
2023-05-17T14:06:10.841Z,16.60
2023-05-17T14:09:15.152Z,16.52
2023-05-17T14:12:19.234Z,16.54
2023-05-17T14:15:22.913Z,16.93
2023-05-17T14:18:26.937Z,16.97
2023-05-17T14:21:30.999Z,17.08
2023-05-17T14:24:36.260Z,17.19
2023-05-17T14:27:40.497Z,16.96
2023-05-17T14:30:44.414Z,17.07
2023-05-17T14:33:48.438Z,17.46
2023-05-17T14:36:52.396Z,17.32
2023-05-17T14:40:06.118Z,17.51
2023-05-17T14:43:10.637Z,17.65
2023-05-17T14:46:14.635Z,17.54
2023-05-17T14:49:19.109Z,17.85
2023-05-17T14:52:23.076Z,18.02
2023-05-17T14:55:26.947Z,17.47
2023-05-17T14:58:30.864Z,17.40
2023-05-17T15:01:34.947Z,16.88
2023-05-17T15:04:39.268Z,16.93
2023-05-17T15:07:43.217Z,17.26
2023-05-17T15:10:47.024Z,17.13
2023-05-17T15:13:51.186Z,16.89
2023-05-17T15:16:55.434Z,16.52
2023-05-17T15:19:59.593Z,16.50
2023-05-17T15:23:03.480Z,16.92
2023-05-17T15:26:07.447Z,16.45
2023-05-17T15:29:11.592Z,16.37
2023-05-17T15:32:15.506Z,16.15
2023-05-17T15:35:19.393Z,16.03
2023-05-17T15:38:23.309Z,16.30
2023-05-17T15:41:29.898Z,16.29
2023-05-17T15:44:34.167Z,16.41
2023-05-17T15:47:43.620Z,16.13
2023-05-17T15:50:48.041Z,15.92
2023-05-17T15:53:52.095Z,15.90
2023-05-17T15:56:55.937Z,16.14
2023-05-17T15:59:59.489Z,16.32
2023-05-17T16:03:03.351Z,16.37
2023-05-17T16:06:07.583Z,16.81
2023-05-17T16:09:11.407Z,16.43
2023-05-17T16:12:15.484Z,15.94
2023-05-17T16:15:19.429Z,16.09
2023-05-17T16:18:23.950Z,16.05
2023-05-17T16:21:28.207Z,16.25
2023-05-17T16:24:32.100Z,16.25
2023-05-17T16:27:35.827Z,16.27
2023-05-17T16:30:39.757Z,16.55
2023-05-17T16:33:44.167Z,16.36
2023-05-17T16:36:48.409Z,16.51
2023-05-17T16:39:52.507Z,15.87
2023-05-17T16:42:56.511Z,16.19
2023-05-17T16:46:00.822Z,16.20
2023-05-17T16:49:05.213Z,15.88
2023-05-17T16:52:09.348Z,15.81
2023-05-17T16:55:13.628Z,16.19
2023-05-17T16:58:33.273Z,16.12
2023-05-17T17:05:01.079Z,15.93
2023-05-17T17:08:05.335Z,15.77
2023-05-17T17:24:46.031Z,16.14
2023-05-17T18:25:36.722Z,15.26
2023-05-17T18:35:02.058Z,15.04
2023-05-17T20:13:44.714Z,14.51
2023-05-17T20:20:19.211Z,14.76
2023-05-17T20:23:25.481Z,14.80
2023-05-17T20:26:30.335Z,13.93
2023-05-17T20:29:52.489Z,13.85
2023-05-17T20:33:00.790Z,14.49
2023-05-17T20:39:31.041Z,14.84
2023-05-17T20:42:36.569Z,14.39
2023-05-17T20:48:47.038Z,14.24
2023-05-17T20:54:57.183Z,13.53
2023-05-17T20:58:02.364Z,14.13
2023-05-17T21:01:12.864Z,13.75
2023-05-17T21:07:40.315Z,13.84
2023-05-17T21:14:15.043Z,13.59
2023-05-17T21:17:22.934Z,13.76
2023-05-17T21:20:30.477Z,13.72
2023-05-17T21:23:37.320Z,13.95
2023-05-17T21:26:43.484Z,13.65
2023-05-17T21:29:48.352Z,13.77
2023-05-17T21:32:56.462Z,13.60
2023-05-17T21:43:05.937Z,14.04
2023-05-17T21:46:11.867Z,14.22
2023-05-17T21:49:20.745Z,14.11
2023-05-17T21:56:02.012Z,13.63
2023-05-17T21:59:10.574Z,13.68
2023-05-17T22:05:43.774Z,13.37
2023-05-17T22:08:53.611Z,13.80
2023-05-17T22:12:06.536Z,13.49
2023-05-17T22:22:00.180Z,13.15
2023-05-17T22:25:11.192Z,12.95
2023-05-17T22:28:20.806Z,13.23
2023-05-17T22:31:25.606Z,13.23
2023-05-17T22:34:39.931Z,13.35
2023-05-17T22:37:52.544Z,13.09
2023-05-17T22:47:43.021Z,13.14
2023-05-17T22:50:47.409Z,12.76
2023-05-17T22:53:51.751Z,12.76
2023-05-17T23:00:26.429Z,12.94
2023-05-17T23:03:49.380Z,12.46
2023-05-17T23:06:53.942Z,12.49
2023-05-17T23:16:45.590Z,12.60
2023-05-17T23:19:49.650Z,12.50
2023-05-17T23:22:53.961Z,12.43
2023-05-17T23:25:58.025Z,12.49
2023-05-17T23:32:08.691Z,12.48
2023-05-17T23:35:12.553Z,12.30
2023-05-17T23:38:20.771Z,12.46
2023-05-17T23:41:24.505Z,12.47
2023-05-17T23:44:29.241Z,12.57
2023-05-17T23:47:33.730Z,12.56
2023-05-17T23:50:41.170Z,12.36
2023-05-17T23:53:46.503Z,12.48
2023-05-17T23:56:52.485Z,12.10
